sensor_id;sensor_type;location;lat;lon;timestamp;temperature;humidity
16408;DHT22;8313;49.894;8.084;2024-02-26T00:01:55;7.50;99.90
16408;DHT22;8313;49.894;8.084;2024-02-26T00:04:23;7.60;99.90
16408;DHT22;8313;49.894;8.084;2024-02-26T00:06:49;7.60;99.90
16408;DHT22;8313;49.894;8.084;2024-02-26T00:09:16;7.60;99.90
16408;DHT22;8313;49.894;8.084;2024-02-26T00:11:42;7.50;99.90
16408;DHT22;8313;49.894;8.084;2024-02-26T00:14:08;7.50;99.90
16408;DHT22;8313;49.894;8.084;2024-02-26T00:16:33;7.50;99.90
16408;DHT22;8313;49.894;8.084;2024-02-26T00:18:59;7.60;99.90
16408;DHT22;8313;49.894;8.084;2024-02-26T00:21:25;7.60;99.90
16408;DHT22;8313;49.894;8.084;2024-02-26T00:23:55;7.50;99.90
16408;DHT22;8313;49.894;8.084;2024-02-26T00:26:20;7.50;99.90
16408;DHT22;8313;49.894;8.084;2024-02-26T00:28:46;7.50;99.90
16408;DHT22;8313;49.894;8.084;2024-02-26T00:31:11;7.50;99.90
16408;DHT22;8313;49.894;8.084;2024-02-26T00:33:37;7.50;99.90
16408;DHT22;8313;49.894;8.084;2024-02-26T00:36:04;7.50;99.90
16408;DHT22;8313;49.894;8.084;2024-02-26T00:38:29;7.50;99.90
16408;DHT22;8313;49.894;8.084;2024-02-26T00:40:55;7.50;99.90
16408;DHT22;8313;49.894;8.084;2024-02-26T00:43:21;7.50;99.90
16408;DHT22;8313;49.894;8.084;2024-02-26T00:45:46;7.50;99.90
16408;DHT22;8313;49.894;8.084;2024-02-26T00:48:12;7.50;99.90
16408;DHT22;8313;49.894;8.084;2024-02-26T00:50:39;7.60;99.90
16408;DHT22;8313;49.894;8.084;2024-02-26T00:53:05;7.60;99.90
16408;DHT22;8313;49.894;8.084;2024-02-26T00:55:31;7.50;99.90
16408;DHT22;8313;49.894;8.084;2024-02-26T00:57:56;7.50;99.90
16408;DHT22;8313;49.894;8.084;2024-02-26T01:00:22;7.50;99.90
16408;DHT22;8313;49.894;8.084;2024-02-26T01:02:48;7.50;99.90
16408;DHT22;8313;49.894;8.084;2024-02-26T01:05:14;7.40;99.90
16408;DHT22;8313;49.894;8.084;2024-02-26T01:07:40;7.40;99.90
16408;DHT22;8313;49.894;8.084;2024-02-26T01:10:06;7.40;99.90
16408;DHT22;8313;49.894;8.084;2024-02-26T01:12:33;7.40;99.90
16408;DHT22;8313;49.894;8.084;2024-02-26T01:14:59;7.40;99.90
16408;DHT22;8313;49.894;8.084;2024-02-26T01:17:25;7.40;99.90
16408;DHT22;8313;49.894;8.084;2024-02-26T01:19:51;7.50;99.90
16408;DHT22;8313;49.894;8.084;2024-02-26T01:22:17;7.50;99.90
16408;DHT22;8313;49.894;8.084;2024-02-26T01:24:43;7.50;99.90
16408;DHT22;8313;49.894;8.084;2024-02-26T01:27:09;7.50;99.90
16408;DHT22;8313;49.894;8.084;2024-02-26T01:29:34;7.50;99.90
16408;DHT22;8313;49.894;8.084;2024-02-26T01:32:00;7.50;99.90
16408;DHT22;8313;49.894;8.084;2024-02-26T01:34:26;7.50;99.90
16408;DHT22;8313;49.894;8.084;2024-02-26T01:36:51;7.50;99.90
16408;DHT22;8313;49.894;8.084;2024-02-26T01:39:17;7.50;99.90
16408;DHT22;8313;49.894;8.084;2024-02-26T01:41:43;7.50;99.90
16408;DHT22;8313;49.894;8.084;2024-02-26T01:44:12;7.40;99.90
16408;DHT22;8313;49.894;8.084;2024-02-26T01:46:38;7.40;99.90
16408;DHT22;8313;49.894;8.084;2024-02-26T01:49:03;7.40;99.90
16408;DHT22;8313;49.894;8.084;2024-02-26T01:51:31;7.30;99.90
16408;DHT22;8313;49.894;8.084;2024-02-26T01:53:58;7.40;99.90
16408;DHT22;8313;49.894;8.084;2024-02-26T01:56:25;7.40;99.90
16408;DHT22;8313;49.894;8.084;2024-02-26T01:58:56;7.40;99.90
16408;DHT22;8313;49.894;8.084;2024-02-26T02:01:22;7.40;99.90
16408;DHT22;8313;49.894;8.084;2024-02-26T02:03:51;7.40;99.90
16408;DHT22;8313;49.894;8.084;2024-02-26T02:06:17;7.40;99.90
16408;DHT22;8313;49.894;8.084;2024-02-26T02:08:43;7.40;99.90
16408;DHT22;8313;49.894;8.084;2024-02-26T02:11:09;7.40;99.90
16408;DHT22;8313;49.894;8.084;2024-02-26T02:13:37;7.50;99.90
16408;DHT22;8313;49.894;8.084;2024-02-26T02:16:03;7.40;99.90
16408;DHT22;8313;49.894;8.084;2024-02-26T02:18:29;7.50;99.90
16408;DHT22;8313;49.894;8.084;2024-02-26T02:20:55;7.40;99.90
16408;DHT22;8313;49.894;8.084;2024-02-26T02:23:22;7.40;99.90
16408;DHT22;8313;49.894;8.084;2024-02-26T02:25:48;7.40;99.90
16408;DHT22;8313;49.894;8.084;2024-02-26T02:28:14;7.40;99.90
16408;DHT22;8313;49.894;8.084;2024-02-26T02:30:40;7.40;99.90
16408;DHT22;8313;49.894;8.084;2024-02-26T02:33:06;7.40;99.90
16408;DHT22;8313;49.894;8.084;2024-02-26T02:35:31;7.40;99.90
16408;DHT22;8313;49.894;8.084;2024-02-26T02:37:57;7.40;99.90
16408;DHT22;8313;49.894;8.084;2024-02-26T02:40:23;7.40;99.90
16408;DHT22;8313;49.894;8.084;2024-02-26T02:42:49;7.50;99.90
16408;DHT22;8313;49.894;8.084;2024-02-26T02:45:15;7.50;99.90
16408;DHT22;8313;49.894;8.084;2024-02-26T02:47:40;7.50;99.90
16408;DHT22;8313;49.894;8.084;2024-02-26T02:50:06;7.50;99.90
16408;DHT22;8313;49.894;8.084;2024-02-26T02:52:32;7.50;99.90
16408;DHT22;8313;49.894;8.084;2024-02-26T02:54:58;7.50;99.90
16408;DHT22;8313;49.894;8.084;2024-02-26T02:57:24;7.50;99.90
16408;DHT22;8313;49.894;8.084;2024-02-26T02:59:49;7.50;99.90
16408;DHT22;8313;49.894;8.084;2024-02-26T03:02:15;7.50;99.90
16408;DHT22;8313;49.894;8.084;2024-02-26T03:04:41;7.50;99.90
16408;DHT22;8313;49.894;8.084;2024-02-26T03:07:06;7.50;99.90
16408;DHT22;8313;49.894;8.084;2024-02-26T03:09:32;7.60;99.90
16408;DHT22;8313;49.894;8.084;2024-02-26T03:11:58;7.60;99.90
16408;DHT22;8313;49.894;8.084;2024-02-26T03:14:23;7.60;99.90
16408;DHT22;8313;49.894;8.084;2024-02-26T03:16:53;7.60;99.90
16408;DHT22;8313;49.894;8.084;2024-02-26T03:19:19;7.60;99.90
16408;DHT22;8313;49.894;8.084;2024-02-26T03:21:45;7.60;99.90
16408;DHT22;8313;49.894;8.084;2024-02-26T03:24:10;7.50;99.90
16408;DHT22;8313;49.894;8.084;2024-02-26T03:26:37;7.50;99.90
16408;DHT22;8313;49.894;8.084;2024-02-26T03:29:03;7.50;99.90
16408;DHT22;8313;49.894;8.084;2024-02-26T03:31:29;7.50;99.90
16408;DHT22;8313;49.894;8.084;2024-02-26T03:33:55;7.50;99.90
16408;DHT22;8313;49.894;8.084;2024-02-26T03:36:21;7.50;99.90
16408;DHT22;8313;49.894;8.084;2024-02-26T03:38:47;7.50;99.90
16408;DHT22;8313;49.894;8.084;2024-02-26T03:41:14;7.50;99.90
16408;DHT22;8313;49.894;8.084;2024-02-26T03:43:40;7.50;99.90
16408;DHT22;8313;49.894;8.084;2024-02-26T03:46:09;7.50;99.90
16408;DHT22;8313;49.894;8.084;2024-02-26T03:48:36;7.50;99.90
16408;DHT22;8313;49.894;8.084;2024-02-26T03:51:02;7.50;99.90
16408;DHT22;8313;49.894;8.084;2024-02-26T03:53:28;7.50;99.90
16408;DHT22;8313;49.894;8.084;2024-02-26T03:55:54;7.50;99.90
16408;DHT22;8313;49.894;8.084;2024-02-26T03:58:21;7.50;99.90
16408;DHT22;8313;49.894;8.084;2024-02-26T04:00:47;7.50;99.90
16408;DHT22;8313;49.894;8.084;2024-02-26T04:03:13;7.50;99.90
16408;DHT22;8313;49.894;8.084;2024-02-26T04:05:39;7.50;99.90
16408;DHT22;8313;49.894;8.084;2024-02-26T04:08:05;7.50;99.90
16408;DHT22;8313;49.894;8.084;2024-02-26T04:10:33;7.60;99.90
16408;DHT22;8313;49.894;8.084;2024-02-26T04:13:00;7.60;99.90
16408;DHT22;8313;49.894;8.084;2024-02-26T04:15:26;7.60;99.90
16408;DHT22;8313;49.894;8.084;2024-02-26T04:17:52;7.60;99.90
16408;DHT22;8313;49.894;8.084;2024-02-26T04:20:17;7.60;99.90
16408;DHT22;8313;49.894;8.084;2024-02-26T04:22:43;7.60;99.90
16408;DHT22;8313;49.894;8.084;2024-02-26T04:25:09;7.60;99.90
16408;DHT22;8313;49.894;8.084;2024-02-26T04:27:35;7.60;99.90
16408;DHT22;8313;49.894;8.084;2024-02-26T04:30:01;7.60;99.90
16408;DHT22;8313;49.894;8.084;2024-02-26T04:32:26;7.60;99.90
16408;DHT22;8313;49.894;8.084;2024-02-26T04:34:53;7.50;99.90
16408;DHT22;8313;49.894;8.084;2024-02-26T04:37:19;7.60;99.90
16408;DHT22;8313;49.894;8.084;2024-02-26T04:39:45;7.50;99.90
16408;DHT22;8313;49.894;8.084;2024-02-26T04:42:11;7.50;99.90
16408;DHT22;8313;49.894;8.084;2024-02-26T04:44:36;7.60;99.90
16408;DHT22;8313;49.894;8.084;2024-02-26T04:47:02;7.50;99.90
16408;DHT22;8313;49.894;8.084;2024-02-26T04:49:28;7.60;99.90
16408;DHT22;8313;49.894;8.084;2024-02-26T04:51:53;7.60;99.90
16408;DHT22;8313;49.894;8.084;2024-02-26T04:54:20;7.60;99.90
16408;DHT22;8313;49.894;8.084;2024-02-26T04:56:46;7.60;99.90
16408;DHT22;8313;49.894;8.084;2024-02-26T04:59:11;7.50;99.90
16408;DHT22;8313;49.894;8.084;2024-02-26T05:01:37;7.50;99.90
16408;DHT22;8313;49.894;8.084;2024-02-26T05:04:03;7.60;99.90
16408;DHT22;8313;49.894;8.084;2024-02-26T05:06:29;7.50;99.90
16408;DHT22;8313;49.894;8.084;2024-02-26T05:08:54;7.50;99.90
16408;DHT22;8313;49.894;8.084;2024-02-26T05:11:20;7.50;99.90
16408;DHT22;8313;49.894;8.084;2024-02-26T05:13:47;7.50;99.90
16408;DHT22;8313;49.894;8.084;2024-02-26T05:16:13;7.50;99.90
16408;DHT22;8313;49.894;8.084;2024-02-26T05:18:38;7.50;99.90
16408;DHT22;8313;49.894;8.084;2024-02-26T05:21:04;7.50;99.90
16408;DHT22;8313;49.894;8.084;2024-02-26T05:23:30;7.50;99.90
16408;DHT22;8313;49.894;8.084;2024-02-26T05:25:55;7.50;99.90
16408;DHT22;8313;49.894;8.084;2024-02-26T05:28:21;7.50;99.90
16408;DHT22;8313;49.894;8.084;2024-02-26T05:30:47;7.50;99.90
16408;DHT22;8313;49.894;8.084;2024-02-26T05:33:13;7.50;99.90
16408;DHT22;8313;49.894;8.084;2024-02-26T05:35:39;7.50;99.90
16408;DHT22;8313;49.894;8.084;2024-02-26T05:38:06;7.50;99.90
16408;DHT22;8313;49.894;8.084;2024-02-26T05:40:31;7.50;99.90
16408;DHT22;8313;49.894;8.084;2024-02-26T05:42:57;7.50;99.90
16408;DHT22;8313;49.894;8.084;2024-02-26T05:45:23;7.50;99.90
16408;DHT22;8313;49.894;8.084;2024-02-26T05:47:48;7.50;99.90
16408;DHT22;8313;49.894;8.084;2024-02-26T05:50:15;7.50;99.90
16408;DHT22;8313;49.894;8.084;2024-02-26T05:52:41;7.50;99.90
16408;DHT22;8313;49.894;8.084;2024-02-26T05:55:07;7.50;99.90
16408;DHT22;8313;49.894;8.084;2024-02-26T05:57:34;7.50;99.90
16408;DHT22;8313;49.894;8.084;2024-02-26T05:59:59;7.50;99.90
16408;DHT22;8313;49.894;8.084;2024-02-26T06:02:37;7.50;99.90
16408;DHT22;8313;49.894;8.084;2024-02-26T06:05:02;7.50;99.90
16408;DHT22;8313;49.894;8.084;2024-02-26T06:07:28;7.50;99.90
16408;DHT22;8313;49.894;8.084;2024-02-26T06:09:54;7.50;99.90
16408;DHT22;8313;49.894;8.084;2024-02-26T06:12:19;7.50;99.90
16408;DHT22;8313;49.894;8.084;2024-02-26T06:14:45;7.50;99.90
16408;DHT22;8313;49.894;8.084;2024-02-26T06:17:11;7.50;99.90
16408;DHT22;8313;49.894;8.084;2024-02-26T06:19:36;7.50;99.90
16408;DHT22;8313;49.894;8.084;2024-02-26T06:22:02;7.50;99.90
16408;DHT22;8313;49.894;8.084;2024-02-26T06:24:28;7.50;99.90
16408;DHT22;8313;49.894;8.084;2024-02-26T06:26:53;7.50;99.90
16408;DHT22;8313;49.894;8.084;2024-02-26T06:29:19;7.50;99.90
16408;DHT22;8313;49.894;8.084;2024-02-26T06:31:44;7.50;99.90
16408;DHT22;8313;49.894;8.084;2024-02-26T06:34:10;7.50;99.90
16408;DHT22;8313;49.894;8.084;2024-02-26T06:36:37;7.50;99.90
16408;DHT22;8313;49.894;8.084;2024-02-26T06:39:02;7.50;99.90
16408;DHT22;8313;49.894;8.084;2024-02-26T06:41:28;7.50;99.90
16408;DHT22;8313;49.894;8.084;2024-02-26T06:43:55;7.50;99.90
16408;DHT22;8313;49.894;8.084;2024-02-26T06:46:21;7.50;99.90
16408;DHT22;8313;49.894;8.084;2024-02-26T06:48:51;7.50;99.90
16408;DHT22;8313;49.894;8.084;2024-02-26T06:51:16;7.50;99.90
16408;DHT22;8313;49.894;8.084;2024-02-26T06:53:42;7.50;99.90
16408;DHT22;8313;49.894;8.084;2024-02-26T06:56:08;7.50;99.90
16408;DHT22;8313;49.894;8.084;2024-02-26T06:58:33;7.40;99.90
16408;DHT22;8313;49.894;8.084;2024-02-26T07:00:59;7.50;99.90
16408;DHT22;8313;49.894;8.084;2024-02-26T07:03:25;7.50;99.90
16408;DHT22;8313;49.894;8.084;2024-02-26T07:05:51;7.40;99.90
16408;DHT22;8313;49.894;8.084;2024-02-26T07:08:17;7.50;99.90
16408;DHT22;8313;49.894;8.084;2024-02-26T07:10:43;7.50;99.90
16408;DHT22;8313;49.894;8.084;2024-02-26T07:13:09;7.50;99.90
16408;DHT22;8313;49.894;8.084;2024-02-26T07:15:35;7.50;99.90
16408;DHT22;8313;49.894;8.084;2024-02-26T07:18:00;7.50;99.90
16408;DHT22;8313;49.894;8.084;2024-02-26T07:20:31;7.50;99.90
16408;DHT22;8313;49.894;8.084;2024-02-26T07:22:57;7.50;99.90
16408;DHT22;8313;49.894;8.084;2024-02-26T07:25:23;7.50;99.90
16408;DHT22;8313;49.894;8.084;2024-02-26T07:27:50;7.50;99.90
16408;DHT22;8313;49.894;8.084;2024-02-26T07:30:16;7.50;99.90
16408;DHT22;8313;49.894;8.084;2024-02-26T07:32:42;7.50;99.90
16408;DHT22;8313;49.894;8.084;2024-02-26T07:35:08;7.40;99.90
16408;DHT22;8313;49.894;8.084;2024-02-26T07:37:34;7.50;99.90
16408;DHT22;8313;49.894;8.084;2024-02-26T07:40:00;7.40;99.90
16408;DHT22;8313;49.894;8.084;2024-02-26T07:42:26;7.40;99.90
16408;DHT22;8313;49.894;8.084;2024-02-26T07:44:51;7.40;99.90
16408;DHT22;8313;49.894;8.084;2024-02-26T07:47:18;7.40;99.90
16408;DHT22;8313;49.894;8.084;2024-02-26T07:49:44;7.40;99.90
16408;DHT22;8313;49.894;8.084;2024-02-26T07:52:10;7.40;99.90
16408;DHT22;8313;49.894;8.084;2024-02-26T07:54:36;7.40;99.90
16408;DHT22;8313;49.894;8.084;2024-02-26T07:57:02;7.40;99.90
16408;DHT22;8313;49.894;8.084;2024-02-26T07:59:31;7.50;99.90
16408;DHT22;8313;49.894;8.084;2024-02-26T08:01:56;7.50;99.90
16408;DHT22;8313;49.894;8.084;2024-02-26T08:04:22;7.40;99.90
16408;DHT22;8313;49.894;8.084;2024-02-26T08:06:49;7.40;99.90
16408;DHT22;8313;49.894;8.084;2024-02-26T08:09:15;7.40;99.90
16408;DHT22;8313;49.894;8.084;2024-02-26T08:11:40;7.40;99.90
16408;DHT22;8313;49.894;8.084;2024-02-26T08:14:06;7.40;99.90
16408;DHT22;8313;49.894;8.084;2024-02-26T08:16:31;7.40;99.90
16408;DHT22;8313;49.894;8.084;2024-02-26T08:18:57;7.40;99.90
16408;DHT22;8313;49.894;8.084;2024-02-26T08:21:23;7.50;99.90
16408;DHT22;8313;49.894;8.084;2024-02-26T08:23:49;7.50;99.90
16408;DHT22;8313;49.894;8.084;2024-02-26T08:26:14;7.50;99.90
16408;DHT22;8313;49.894;8.084;2024-02-26T08:28:40;7.50;99.90
16408;DHT22;8313;49.894;8.084;2024-02-26T08:31:06;7.50;99.90
16408;DHT22;8313;49.894;8.084;2024-02-26T08:33:32;7.50;99.90
16408;DHT22;8313;49.894;8.084;2024-02-26T08:36:04;7.50;99.90
16408;DHT22;8313;49.894;8.084;2024-02-26T08:38:30;7.50;99.90
16408;DHT22;8313;49.894;8.084;2024-02-26T08:40:55;7.50;99.90
16408;DHT22;8313;49.894;8.084;2024-02-26T08:43:21;7.50;99.90
16408;DHT22;8313;49.894;8.084;2024-02-26T08:45:46;7.50;99.90
16408;DHT22;8313;49.894;8.084;2024-02-26T08:48:12;7.50;99.90
16408;DHT22;8313;49.894;8.084;2024-02-26T08:50:38;7.50;99.90
16408;DHT22;8313;49.894;8.084;2024-02-26T08:53:03;7.60;99.90
16408;DHT22;8313;49.894;8.084;2024-02-26T08:55:29;7.60;99.90
16408;DHT22;8313;49.894;8.084;2024-02-26T08:57:55;7.50;99.90
16408;DHT22;8313;49.894;8.084;2024-02-26T09:00:21;7.50;99.90
16408;DHT22;8313;49.894;8.084;2024-02-26T09:02:49;7.50;99.90
16408;DHT22;8313;49.894;8.084;2024-02-26T09:05:15;7.50;99.90
16408;DHT22;8313;49.894;8.084;2024-02-26T09:07:41;7.50;99.90
16408;DHT22;8313;49.894;8.084;2024-02-26T09:10:07;7.40;99.90
16408;DHT22;8313;49.894;8.084;2024-02-26T09:12:37;7.40;99.90
16408;DHT22;8313;49.894;8.084;2024-02-26T09:15:03;7.50;99.90
16408;DHT22;8313;49.894;8.084;2024-02-26T09:17:29;7.50;99.90
16408;DHT22;8313;49.894;8.084;2024-02-26T09:19:54;7.50;99.90
16408;DHT22;8313;49.894;8.084;2024-02-26T09:22:20;7.60;99.90
16408;DHT22;8313;49.894;8.084;2024-02-26T09:24:46;7.60;99.90
16408;DHT22;8313;49.894;8.084;2024-02-26T09:27:11;7.50;99.90
16408;DHT22;8313;49.894;8.084;2024-02-26T09:29:37;7.50;99.90
16408;DHT22;8313;49.894;8.084;2024-02-26T09:32:03;7.60;99.90
16408;DHT22;8313;49.894;8.084;2024-02-26T09:34:29;7.60;99.90
16408;DHT22;8313;49.894;8.084;2024-02-26T09:36:54;7.60;99.90
16408;DHT22;8313;49.894;8.084;2024-02-26T09:39:20;7.60;99.90
16408;DHT22;8313;49.894;8.084;2024-02-26T09:41:48;7.60;99.90
16408;DHT22;8313;49.894;8.084;2024-02-26T09:44:20;7.60;99.90
16408;DHT22;8313;49.894;8.084;2024-02-26T09:46:47;7.60;99.90
16408;DHT22;8313;49.894;8.084;2024-02-26T09:49:15;7.60;99.90
16408;DHT22;8313;49.894;8.084;2024-02-26T09:51:41;7.60;99.90
16408;DHT22;8313;49.894;8.084;2024-02-26T09:54:09;7.60;99.90
16408;DHT22;8313;49.894;8.084;2024-02-26T09:56:37;7.60;99.90
16408;DHT22;8313;49.894;8.084;2024-02-26T09:59:10;7.60;99.90
16408;DHT22;8313;49.894;8.084;2024-02-26T10:01:36;7.70;99.90
16408;DHT22;8313;49.894;8.084;2024-02-26T10:04:04;7.60;99.90
16408;DHT22;8313;49.894;8.084;2024-02-26T10:06:30;7.70;99.90
16408;DHT22;8313;49.894;8.084;2024-02-26T10:08:56;7.70;99.90
16408;DHT22;8313;49.894;8.084;2024-02-26T10:11:24;7.70;99.90
16408;DHT22;8313;49.894;8.084;2024-02-26T10:13:50;7.70;99.90
16408;DHT22;8313;49.894;8.084;2024-02-26T10:16:16;7.70;99.90
16408;DHT22;8313;49.894;8.084;2024-02-26T10:18:54;7.70;99.90
16408;DHT22;8313;49.894;8.084;2024-02-26T10:21:21;7.70;99.90
16408;DHT22;8313;49.894;8.084;2024-02-26T10:23:47;7.80;99.90
16408;DHT22;8313;49.894;8.084;2024-02-26T10:26:14;7.80;99.90
16408;DHT22;8313;49.894;8.084;2024-02-26T10:28:42;7.80;99.90
16408;DHT22;8313;49.894;8.084;2024-02-26T10:31:09;7.80;99.90
16408;DHT22;8313;49.894;8.084;2024-02-26T10:33:36;7.80;99.90
16408;DHT22;8313;49.894;8.084;2024-02-26T10:36:03;7.80;99.90
16408;DHT22;8313;49.894;8.084;2024-02-26T10:38:30;7.80;99.90
16408;DHT22;8313;49.894;8.084;2024-02-26T10:40:56;7.90;99.90
16408;DHT22;8313;49.894;8.084;2024-02-26T10:43:21;7.90;99.90
16408;DHT22;8313;49.894;8.084;2024-02-26T10:45:47;7.90;99.90
16408;DHT22;8313;49.894;8.084;2024-02-26T10:48:16;7.90;99.90
16408;DHT22;8313;49.894;8.084;2024-02-26T10:50:43;8.00;99.90
16408;DHT22;8313;49.894;8.084;2024-02-26T10:53:20;8.00;99.90
16408;DHT22;8313;49.894;8.084;2024-02-26T10:55:54;8.00;99.90
16408;DHT22;8313;49.894;8.084;2024-02-26T10:58:20;8.00;99.90
16408;DHT22;8313;49.894;8.084;2024-02-26T11:00:48;8.00;99.90
16408;DHT22;8313;49.894;8.084;2024-02-26T11:03:15;8.00;99.90
16408;DHT22;8313;49.894;8.084;2024-02-26T11:05:49;8.00;99.90
16408;DHT22;8313;49.894;8.084;2024-02-26T11:08:18;8.00;99.90
16408;DHT22;8313;49.894;8.084;2024-02-26T11:10:47;8.10;99.90
16408;DHT22;8313;49.894;8.084;2024-02-26T11:13:15;8.10;99.90
16408;DHT22;8313;49.894;8.084;2024-02-26T11:15:43;8.10;99.90
16408;DHT22;8313;49.894;8.084;2024-02-26T11:18:09;8.10;99.90
16408;DHT22;8313;49.894;8.084;2024-02-26T11:20:38;8.10;99.90
16408;DHT22;8313;49.894;8.084;2024-02-26T11:23:07;8.20;99.90
16408;DHT22;8313;49.894;8.084;2024-02-26T11:25:33;8.20;99.90
16408;DHT22;8313;49.894;8.084;2024-02-26T11:28:02;8.20;99.90
16408;DHT22;8313;49.894;8.084;2024-02-26T11:30:31;8.20;99.90
16408;DHT22;8313;49.894;8.084;2024-02-26T11:32:58;8.30;99.90
16408;DHT22;8313;49.894;8.084;2024-02-26T11:35:24;8.30;99.90
16408;DHT22;8313;49.894;8.084;2024-02-26T11:37:56;8.30;99.90
16408;DHT22;8313;49.894;8.084;2024-02-26T11:40:26;8.30;99.90
16408;DHT22;8313;49.894;8.084;2024-02-26T11:42:53;8.30;99.90
16408;DHT22;8313;49.894;8.084;2024-02-26T11:48:03;8.40;99.90
16408;DHT22;8313;49.894;8.084;2024-02-26T11:50:40;8.40;99.90
16408;DHT22;8313;49.894;8.084;2024-02-26T11:53:27;8.40;99.90
16408;DHT22;8313;49.894;8.084;2024-02-26T11:58:45;8.50;99.90
16408;DHT22;8313;49.894;8.084;2024-02-26T12:04:05;8.50;99.90
16408;DHT22;8313;49.894;8.084;2024-02-26T12:06:39;8.50;99.90
16408;DHT22;8313;49.894;8.084;2024-02-26T12:09:07;8.60;99.90
16408;DHT22;8313;49.894;8.084;2024-02-26T12:11:37;8.60;99.90
16408;DHT22;8313;49.894;8.084;2024-02-26T12:14:03;8.60;99.90
16408;DHT22;8313;49.894;8.084;2024-02-26T12:16:39;8.60;99.90
16408;DHT22;8313;49.894;8.084;2024-02-26T12:19:06;8.60;99.90
16408;DHT22;8313;49.894;8.084;2024-02-26T12:21:37;8.70;99.90
16408;DHT22;8313;49.894;8.084;2024-02-26T12:24:15;8.70;99.90
16408;DHT22;8313;49.894;8.084;2024-02-26T12:26:44;8.70;99.90
16408;DHT22;8313;49.894;8.084;2024-02-26T12:29:10;8.70;99.90
16408;DHT22;8313;49.894;8.084;2024-02-26T12:31:36;8.80;99.90
16408;DHT22;8313;49.894;8.084;2024-02-26T12:34:03;8.70;99.90
16408;DHT22;8313;49.894;8.084;2024-02-26T12:36:30;8.80;99.90
16408;DHT22;8313;49.894;8.084;2024-02-26T12:38:55;8.80;99.90
16408;DHT22;8313;49.894;8.084;2024-02-26T12:41:22;8.90;99.90
16408;DHT22;8313;49.894;8.084;2024-02-26T12:43:48;8.90;99.90
16408;DHT22;8313;49.894;8.084;2024-02-26T12:46:14;8.90;99.90
16408;DHT22;8313;49.894;8.084;2024-02-26T12:48:44;8.90;99.90
16408;DHT22;8313;49.894;8.084;2024-02-26T12:51:12;9.00;99.90
16408;DHT22;8313;49.894;8.084;2024-02-26T12:53:39;9.00;99.90
16408;DHT22;8313;49.894;8.084;2024-02-26T12:56:10;9.10;99.90
16408;DHT22;8313;49.894;8.084;2024-02-26T12:58:38;9.10;99.90
16408;DHT22;8313;49.894;8.084;2024-02-26T13:01:05;9.20;99.90
16408;DHT22;8313;49.894;8.084;2024-02-26T13:03:33;9.20;99.90
16408;DHT22;8313;49.894;8.084;2024-02-26T13:06:00;9.30;99.90
16408;DHT22;8313;49.894;8.084;2024-02-26T13:08:26;9.30;99.90
16408;DHT22;8313;49.894;8.084;2024-02-26T13:10:51;9.30;99.90
16408;DHT22;8313;49.894;8.084;2024-02-26T13:13:18;9.30;99.90
16408;DHT22;8313;49.894;8.084;2024-02-26T13:15:45;9.40;99.90
16408;DHT22;8313;49.894;8.084;2024-02-26T13:18:13;9.30;99.90
16408;DHT22;8313;49.894;8.084;2024-02-26T13:20:39;9.30;99.90
16408;DHT22;8313;49.894;8.084;2024-02-26T13:23:11;9.40;99.90
16408;DHT22;8313;49.894;8.084;2024-02-26T13:25:37;9.40;99.90
16408;DHT22;8313;49.894;8.084;2024-02-26T13:28:17;9.40;99.90
16408;DHT22;8313;49.894;8.084;2024-02-26T13:30:53;9.40;99.90
16408;DHT22;8313;49.894;8.084;2024-02-26T13:33:19;9.40;99.90
16408;DHT22;8313;49.894;8.084;2024-02-26T13:35:46;9.40;99.90
16408;DHT22;8313;49.894;8.084;2024-02-26T13:38:11;9.40;99.90
16408;DHT22;8313;49.894;8.084;2024-02-26T13:40:37;9.50;99.90
16408;DHT22;8313;49.894;8.084;2024-02-26T13:43:04;9.50;99.90
16408;DHT22;8313;49.894;8.084;2024-02-26T13:45:30;9.50;99.90
16408;DHT22;8313;49.894;8.084;2024-02-26T13:48:05;9.50;99.90
16408;DHT22;8313;49.894;8.084;2024-02-26T13:50:31;9.50;99.90
16408;DHT22;8313;49.894;8.084;2024-02-26T13:52:57;9.50;99.90
16408;DHT22;8313;49.894;8.084;2024-02-26T13:55:25;9.50;99.90
16408;DHT22;8313;49.894;8.084;2024-02-26T13:57:55;9.60;99.90
16408;DHT22;8313;49.894;8.084;2024-02-26T14:00:22;9.60;99.90
16408;DHT22;8313;49.894;8.084;2024-02-26T14:02:48;9.60;99.90
16408;DHT22;8313;49.894;8.084;2024-02-26T14:05:13;9.60;99.90
16408;DHT22;8313;49.894;8.084;2024-02-26T14:07:39;9.60;99.90
16408;DHT22;8313;49.894;8.084;2024-02-26T14:10:05;9.60;99.90
16408;DHT22;8313;49.894;8.084;2024-02-26T14:12:31;9.60;99.90
16408;DHT22;8313;49.894;8.084;2024-02-26T14:14:57;9.70;99.90
16408;DHT22;8313;49.894;8.084;2024-02-26T14:17:26;9.70;99.90
16408;DHT22;8313;49.894;8.084;2024-02-26T14:19:52;9.70;99.90
16408;DHT22;8313;49.894;8.084;2024-02-26T14:22:17;9.70;99.90
16408;DHT22;8313;49.894;8.084;2024-02-26T14:24:43;9.60;99.90
16408;DHT22;8313;49.894;8.084;2024-02-26T14:27:10;9.70;99.90
16408;DHT22;8313;49.894;8.084;2024-02-26T14:29:39;9.70;99.90
16408;DHT22;8313;49.894;8.084;2024-02-26T14:32:07;9.70;99.90
16408;DHT22;8313;49.894;8.084;2024-02-26T14:34:33;9.70;99.90
16408;DHT22;8313;49.894;8.084;2024-02-26T14:36:58;9.70;99.90
16408;DHT22;8313;49.894;8.084;2024-02-26T14:39:24;9.70;99.90
16408;DHT22;8313;49.894;8.084;2024-02-26T14:41:50;9.70;99.90
16408;DHT22;8313;49.894;8.084;2024-02-26T14:44:15;9.70;99.90
16408;DHT22;8313;49.894;8.084;2024-02-26T14:46:41;9.70;99.90
16408;DHT22;8313;49.894;8.084;2024-02-26T14:49:07;9.70;99.90
16408;DHT22;8313;49.894;8.084;2024-02-26T14:51:33;9.70;99.90
16408;DHT22;8313;49.894;8.084;2024-02-26T14:53:58;9.70;99.90
16408;DHT22;8313;49.894;8.084;2024-02-26T14:56:26;9.70;99.90
16408;DHT22;8313;49.894;8.084;2024-02-26T14:58:51;9.70;99.90
16408;DHT22;8313;49.894;8.084;2024-02-26T15:01:17;9.70;99.90
16408;DHT22;8313;49.894;8.084;2024-02-26T15:03:43;9.70;99.90
16408;DHT22;8313;49.894;8.084;2024-02-26T15:06:09;9.70;99.90
16408;DHT22;8313;49.894;8.084;2024-02-26T15:08:34;9.70;99.90
16408;DHT22;8313;49.894;8.084;2024-02-26T15:11:01;9.80;99.90
16408;DHT22;8313;49.894;8.084;2024-02-26T15:13:26;9.80;99.90
16408;DHT22;8313;49.894;8.084;2024-02-26T15:15:52;9.80;99.90
16408;DHT22;8313;49.894;8.084;2024-02-26T15:18:18;9.80;99.90
16408;DHT22;8313;49.894;8.084;2024-02-26T15:20:44;9.80;99.90
16408;DHT22;8313;49.894;8.084;2024-02-26T15:23:10;9.80;99.90
16408;DHT22;8313;49.894;8.084;2024-02-26T15:25:35;9.80;99.90
16408;DHT22;8313;49.894;8.084;2024-02-26T15:28:01;9.80;99.90
16408;DHT22;8313;49.894;8.084;2024-02-26T15:30:27;9.80;99.90
16408;DHT22;8313;49.894;8.084;2024-02-26T15:32:55;9.80;99.90
16408;DHT22;8313;49.894;8.084;2024-02-26T15:35:21;9.80;99.90
16408;DHT22;8313;49.894;8.084;2024-02-26T15:37:46;9.80;99.90
16408;DHT22;8313;49.894;8.084;2024-02-26T15:40:12;9.80;99.90
16408;DHT22;8313;49.894;8.084;2024-02-26T15:42:38;9.80;99.90
16408;DHT22;8313;49.894;8.084;2024-02-26T15:45:04;9.80;99.90
16408;DHT22;8313;49.894;8.084;2024-02-26T15:47:30;9.80;99.90
16408;DHT22;8313;49.894;8.084;2024-02-26T15:49:56;9.80;99.90
16408;DHT22;8313;49.894;8.084;2024-02-26T15:52:22;9.80;99.90
16408;DHT22;8313;49.894;8.084;2024-02-26T15:54:48;9.80;99.90
16408;DHT22;8313;49.894;8.084;2024-02-26T15:57:14;9.80;99.90
16408;DHT22;8313;49.894;8.084;2024-02-26T15:59:41;9.80;99.90
16408;DHT22;8313;49.894;8.084;2024-02-26T16:02:07;9.80;99.90
16408;DHT22;8313;49.894;8.084;2024-02-26T16:04:33;9.80;99.90
16408;DHT22;8313;49.894;8.084;2024-02-26T16:07:02;9.80;99.90